sensor_id;sensor_type;location;lat;lon;timestamp;P1;durP1;ratioP1;P2;durP2;ratioP2
61460;SDS011;47325;50.506;4.472;2024-02-14T00:01:19;3.70;;;2.20;;
61460;SDS011;47325;50.506;4.472;2024-02-14T00:07:06;4.40;;;2.20;;
61460;SDS011;47325;50.506;4.472;2024-02-14T00:12:51;3.20;;;2.00;;
61460;SDS011;47325;50.506;4.472;2024-02-14T00:18:35;3.50;;;2.10;;
61460;SDS011;47325;50.506;4.472;2024-02-14T00:24:19;3.90;;;2.00;;
61460;SDS011;47325;50.506;4.472;2024-02-14T00:30:03;4.20;;;2.30;;
61460;SDS011;47325;50.506;4.472;2024-02-14T00:35:47;3.70;;;2.20;;
61460;SDS011;47325;50.506;4.472;2024-02-14T00:41:37;3.50;;;2.10;;
61460;SDS011;47325;50.506;4.472;2024-02-14T00:47:20;3.50;;;2.00;;
61460;SDS011;47325;50.506;4.472;2024-02-14T00:53:04;4.40;;;2.10;;
61460;SDS011;47325;50.506;4.472;2024-02-14T00:58:48;3.40;;;2.40;;
61460;SDS011;47325;50.506;4.472;2024-02-14T01:04:32;5.70;;;2.50;;
61460;SDS011;47325;50.506;4.472;2024-02-14T01:10:16;4.60;;;2.50;;
61460;SDS011;47325;50.506;4.472;2024-02-14T01:16:00;4.20;;;2.10;;
61460;SDS011;47325;50.506;4.472;2024-02-14T01:21:44;2.80;;;2.10;;
61460;SDS011;47325;50.506;4.472;2024-02-14T01:27:28;3.80;;;2.20;;
61460;SDS011;47325;50.506;4.472;2024-02-14T01:33:12;3.50;;;2.20;;
61460;SDS011;47325;50.506;4.472;2024-02-14T01:38:57;5.40;;;2.40;;
61460;SDS011;47325;50.506;4.472;2024-02-14T01:44:43;5.80;;;2.20;;
61460;SDS011;47325;50.506;4.472;2024-02-14T01:50:27;3.10;;;2.20;;
61460;SDS011;47325;50.506;4.472;2024-02-14T01:56:12;3.90;;;1.90;;
61460;SDS011;47325;50.506;4.472;2024-02-14T02:01:56;4.00;;;1.90;;
61460;SDS011;47325;50.506;4.472;2024-02-14T02:07:40;3.10;;;2.00;;
61460;SDS011;47325;50.506;4.472;2024-02-14T02:13:24;3.40;;;2.10;;
61460;SDS011;47325;50.506;4.472;2024-02-14T02:19:08;4.00;;;2.20;;
61460;SDS011;47325;50.506;4.472;2024-02-14T02:24:53;3.40;;;2.10;;
61460;SDS011;47325;50.506;4.472;2024-02-14T02:30:36;4.30;;;2.20;;
61460;SDS011;47325;50.506;4.472;2024-02-14T02:36:20;4.40;;;2.20;;
61460;SDS011;47325;50.506;4.472;2024-02-14T02:42:04;3.20;;;2.20;;
61460;SDS011;47325;50.506;4.472;2024-02-14T02:47:48;3.90;;;2.40;;
61460;SDS011;47325;50.506;4.472;2024-02-14T02:53:33;4.20;;;2.60;;
61460;SDS011;47325;50.506;4.472;2024-02-14T02:59:16;5.00;;;2.70;;
61460;SDS011;47325;50.506;4.472;2024-02-14T03:05:00;4.20;;;2.40;;
61460;SDS011;47325;50.506;4.472;2024-02-14T03:10:45;4.20;;;2.50;;
61460;SDS011;47325;50.506;4.472;2024-02-14T03:16:29;4.80;;;2.50;;
61460;SDS011;47325;50.506;4.472;2024-02-14T03:22:13;5.70;;;2.80;;
61460;SDS011;47325;50.506;4.472;2024-02-14T03:27:56;3.90;;;2.40;;
61460;SDS011;47325;50.506;4.472;2024-02-14T03:33:40;4.70;;;2.80;;
61460;SDS011;47325;50.506;4.472;2024-02-14T03:39:25;4.40;;;2.50;;
61460;SDS011;47325;50.506;4.472;2024-02-14T03:45:09;4.50;;;2.80;;
61460;SDS011;47325;50.506;4.472;2024-02-14T03:50:56;3.80;;;2.50;;
61460;SDS011;47325;50.506;4.472;2024-02-14T03:56:40;4.10;;;2.70;;
61460;SDS011;47325;50.506;4.472;2024-02-14T04:02:24;5.00;;;2.60;;
61460;SDS011;47325;50.506;4.472;2024-02-14T04:08:08;4.30;;;2.90;;
61460;SDS011;47325;50.506;4.472;2024-02-14T04:13:52;4.90;;;2.60;;
61460;SDS011;47325;50.506;4.472;2024-02-14T04:19:36;4.40;;;2.80;;
61460;SDS011;47325;50.506;4.472;2024-02-14T04:25:20;4.40;;;2.90;;
61460;SDS011;47325;50.506;4.472;2024-02-14T04:31:04;5.20;;;3.30;;
61460;SDS011;47325;50.506;4.472;2024-02-14T04:36:48;6.10;;;3.10;;
61460;SDS011;47325;50.506;4.472;2024-02-14T04:42:31;4.30;;;3.10;;
61460;SDS011;47325;50.506;4.472;2024-02-14T04:48:16;4.80;;;3.10;;
61460;SDS011;47325;50.506;4.472;2024-02-14T04:54:00;5.20;;;3.30;;
61460;SDS011;47325;50.506;4.472;2024-02-14T04:59:44;4.40;;;3.10;;
61460;SDS011;47325;50.506;4.472;2024-02-14T05:05:28;4.80;;;3.10;;
61460;SDS011;47325;50.506;4.472;2024-02-14T05:11:12;4.80;;;2.90;;
61460;SDS011;47325;50.506;4.472;2024-02-14T05:16:57;4.40;;;3.20;;
61460;SDS011;47325;50.506;4.472;2024-02-14T05:22:43;5.10;;;3.20;;
61460;SDS011;47325;50.506;4.472;2024-02-14T05:28:29;4.80;;;3.40;;
61460;SDS011;47325;50.506;4.472;2024-02-14T05:34:13;4.80;;;3.10;;
61460;SDS011;47325;50.506;4.472;2024-02-14T05:39:59;5.20;;;3.40;;
61460;SDS011;47325;50.506;4.472;2024-02-14T05:45:43;6.40;;;3.40;;
61460;SDS011;47325;50.506;4.472;2024-02-14T05:51:27;6.20;;;3.40;;
61460;SDS011;47325;50.506;4.472;2024-02-14T05:57:11;4.70;;;3.40;;
61460;SDS011;47325;50.506;4.472;2024-02-14T06:02:55;5.40;;;3.60;;
61460;SDS011;47325;50.506;4.472;2024-02-14T06:08:40;4.90;;;3.50;;
61460;SDS011;47325;50.506;4.472;2024-02-14T06:14:23;5.10;;;3.40;;
61460;SDS011;47325;50.506;4.472;2024-02-14T06:20:09;5.40;;;3.40;;
61460;SDS011;47325;50.506;4.472;2024-02-14T06:25:53;5.40;;;3.40;;
61460;SDS011;47325;50.506;4.472;2024-02-14T06:31:37;5.80;;;3.60;;
61460;SDS011;47325;50.506;4.472;2024-02-14T06:37:21;4.80;;;3.20;;
61460;SDS011;47325;50.506;4.472;2024-02-14T06:43:04;5.00;;;3.50;;
61460;SDS011;47325;50.506;4.472;2024-02-14T06:48:48;5.90;;;3.70;;
61460;SDS011;47325;50.506;4.472;2024-02-14T06:54:32;5.50;;;3.50;;
61460;SDS011;47325;50.506;4.472;2024-02-14T07:00:17;6.10;;;3.60;;
61460;SDS011;47325;50.506;4.472;2024-02-14T07:06:02;5.70;;;3.60;;
61460;SDS011;47325;50.506;4.472;2024-02-14T07:11:48;4.90;;;3.30;;
61460;SDS011;47325;50.506;4.472;2024-02-14T07:17:32;5.40;;;3.40;;
61460;SDS011;47325;50.506;4.472;2024-02-14T07:23:18;4.90;;;3.60;;
61460;SDS011;47325;50.506;4.472;2024-02-14T07:29:01;6.30;;;3.80;;
61460;SDS011;47325;50.506;4.472;2024-02-14T07:34:45;5.40;;;3.30;;
61460;SDS011;47325;50.506;4.472;2024-02-14T07:40:30;5.90;;;3.90;;
61460;SDS011;47325;50.506;4.472;2024-02-14T07:46:15;6.50;;;3.80;;
61460;SDS011;47325;50.506;4.472;2024-02-14T07:52:00;6.00;;;3.80;;
61460;SDS011;47325;50.506;4.472;2024-02-14T07:57:44;6.60;;;3.80;;
61460;SDS011;47325;50.506;4.472;2024-02-14T08:03:28;12.00;;;7.40;;
61460;SDS011;47325;50.506;4.472;2024-02-14T08:09:12;8.70;;;5.50;;
61460;SDS011;47325;50.506;4.472;2024-02-14T08:14:55;10.20;;;5.30;;
61460;SDS011;47325;50.506;4.472;2024-02-14T08:20:40;8.10;;;5.00;;
61460;SDS011;47325;50.506;4.472;2024-02-14T08:26:23;8.30;;;5.40;;
61460;SDS011;47325;50.506;4.472;2024-02-14T08:32:09;9.20;;;5.00;;
61460;SDS011;47325;50.506;4.472;2024-02-14T08:37:52;7.90;;;5.00;;
61460;SDS011;47325;50.506;4.472;2024-02-14T08:43:40;8.20;;;4.50;;
61460;SDS011;47325;50.506;4.472;2024-02-14T08:49:29;8.80;;;5.10;;
61460;SDS011;47325;50.506;4.472;2024-02-14T08:55:14;9.50;;;5.00;;
61460;SDS011;47325;50.506;4.472;2024-02-14T09:00:58;7.50;;;4.60;;
61460;SDS011;47325;50.506;4.472;2024-02-14T09:06:56;7.90;;;4.30;;
61460;SDS011;47325;50.506;4.472;2024-02-14T09:12:40;6.90;;;4.30;;
61460;SDS011;47325;50.506;4.472;2024-02-14T09:18:24;6.00;;;4.40;;
61460;SDS011;47325;50.506;4.472;2024-02-14T09:24:08;6.50;;;4.40;;
61460;SDS011;47325;50.506;4.472;2024-02-14T09:29:58;6.10;;;4.40;;
61460;SDS011;47325;50.506;4.472;2024-02-14T09:35:42;6.40;;;4.20;;
61460;SDS011;47325;50.506;4.472;2024-02-14T09:41:28;5.90;;;4.10;;
61460;SDS011;47325;50.506;4.472;2024-02-14T09:47:14;6.50;;;4.30;;
61460;SDS011;47325;50.506;4.472;2024-02-14T09:53:02;5.90;;;3.90;;
61460;SDS011;47325;50.506;4.472;2024-02-14T09:58:50;5.80;;;3.80;;
61460;SDS011;47325;50.506;4.472;2024-02-14T10:04:34;5.70;;;3.60;;
61460;SDS011;47325;50.506;4.472;2024-02-14T10:10:18;5.10;;;3.80;;
61460;SDS011;47325;50.506;4.472;2024-02-14T10:16:04;5.40;;;3.70;;
61460;SDS011;47325;50.506;4.472;2024-02-14T10:21:54;5.40;;;3.70;;
61460;SDS011;47325;50.506;4.472;2024-02-14T10:27:40;5.70;;;3.40;;
61460;SDS011;47325;50.506;4.472;2024-02-14T10:33:24;5.10;;;3.40;;
61460;SDS011;47325;50.506;4.472;2024-02-14T10:39:12;4.50;;;3.40;;
61460;SDS011;47325;50.506;4.472;2024-02-14T10:44:58;4.20;;;3.10;;
61460;SDS011;47325;50.506;4.472;2024-02-14T10:50:43;6.20;;;3.30;;
61460;SDS011;47325;50.506;4.472;2024-02-14T10:56:28;3.60;;;2.80;;
61460;SDS011;47325;50.506;4.472;2024-02-14T11:02:15;3.60;;;2.60;;
61460;SDS011;47325;50.506;4.472;2024-02-14T11:08:11;3.90;;;2.60;;
61460;SDS011;47325;50.506;4.472;2024-02-14T11:13:57;4.10;;;2.60;;
61460;SDS011;47325;50.506;4.472;2024-02-14T11:19:41;3.00;;;2.30;;
61460;SDS011;47325;50.506;4.472;2024-02-14T11:25:26;2.90;;;2.20;;
61460;SDS011;47325;50.506;4.472;2024-02-14T11:31:11;3.40;;;2.30;;
61460;SDS011;47325;50.506;4.472;2024-02-14T11:36:59;3.00;;;2.30;;
61460;SDS011;47325;50.506;4.472;2024-02-14T11:42:43;3.00;;;2.00;;
61460;SDS011;47325;50.506;4.472;2024-02-14T11:48:27;3.60;;;2.10;;
61460;SDS011;47325;50.506;4.472;2024-02-14T11:54:12;3.10;;;1.80;;
61460;SDS011;47325;50.506;4.472;2024-02-14T11:59:57;3.10;;;1.90;;
61460;SDS011;47325;50.506;4.472;2024-02-14T12:05:41;2.90;;;2.00;;
61460;SDS011;47325;50.506;4.472;2024-02-14T12:11:26;3.70;;;2.10;;
61460;SDS011;47325;50.506;4.472;2024-02-14T12:17:10;3.10;;;2.00;;
61460;SDS011;47325;50.506;4.472;2024-02-14T12:22:53;3.60;;;1.90;;
61460;SDS011;47325;50.506;4.472;2024-02-14T12:28:37;2.40;;;2.00;;
61460;SDS011;47325;50.506;4.472;2024-02-14T12:34:21;2.70;;;1.90;;
61460;SDS011;47325;50.506;4.472;2024-02-14T12:40:09;4.10;;;1.90;;
61460;SDS011;47325;50.506;4.472;2024-02-14T12:45:53;2.60;;;1.90;;
61460;SDS011;47325;50.506;4.472;2024-02-14T12:51:38;3.50;;;1.90;;
61460;SDS011;47325;50.506;4.472;2024-02-14T12:57:22;4.00;;;2.10;;
61460;SDS011;47325;50.506;4.472;2024-02-14T13:03:07;3.30;;;1.90;;
61460;SDS011;47325;50.506;4.472;2024-02-14T13:08:55;3.20;;;2.10;;
61460;SDS011;47325;50.506;4.472;2024-02-14T13:14:39;2.30;;;2.00;;
61460;SDS011;47325;50.506;4.472;2024-02-14T13:20:23;3.30;;;2.10;;
61460;SDS011;47325;50.506;4.472;2024-02-14T13:26:09;2.40;;;2.00;;
61460;SDS011;47325;50.506;4.472;2024-02-14T13:31:52;4.70;;;2.30;;
61460;SDS011;47325;50.506;4.472;2024-02-14T13:37:37;2.40;;;1.90;;
61460;SDS011;47325;50.506;4.472;2024-02-14T13:43:21;4.20;;;2.00;;
61460;SDS011;47325;50.506;4.472;2024-02-14T13:49:05;3.00;;;1.90;;
61460;SDS011;47325;50.506;4.472;2024-02-14T13:54:50;3.10;;;1.90;;
61460;SDS011;47325;50.506;4.472;2024-02-14T14:00:33;2.90;;;2.20;;
61460;SDS011;47325;50.506;4.472;2024-02-14T14:06:18;3.40;;;1.90;;
61460;SDS011;47325;50.506;4.472;2024-02-14T14:12:03;2.70;;;1.80;;
61460;SDS011;47325;50.506;4.472;2024-02-14T14:17:47;2.30;;;1.80;;
61460;SDS011;47325;50.506;4.472;2024-02-14T14:23:33;2.60;;;1.90;;
61460;SDS011;47325;50.506;4.472;2024-02-14T14:29:17;2.00;;;1.70;;
61460;SDS011;47325;50.506;4.472;2024-02-14T14:35:01;2.40;;;2.00;;
61460;SDS011;47325;50.506;4.472;2024-02-14T14:40:45;2.90;;;1.90;;
61460;SDS011;47325;50.506;4.472;2024-02-14T14:46:29;2.50;;;2.00;;
61460;SDS011;47325;50.506;4.472;2024-02-14T14:52:13;3.40;;;1.90;;
61460;SDS011;47325;50.506;4.472;2024-02-14T14:57:57;3.30;;;1.90;;
61460;SDS011;47325;50.506;4.472;2024-02-14T15:03:41;2.40;;;1.90;;
61460;SDS011;47325;50.506;4.472;2024-02-14T15:09:25;2.30;;;1.80;;
61460;SDS011;47325;50.506;4.472;2024-02-14T15:15:15;2.80;;;1.70;;
61460;SDS011;47325;50.506;4.472;2024-02-14T15:21:00;2.50;;;1.80;;
61460;SDS011;47325;50.506;4.472;2024-02-14T15:26:43;2.90;;;1.70;;
61460;SDS011;47325;50.506;4.472;2024-02-14T15:32:28;2.90;;;1.90;;
61460;SDS011;47325;50.506;4.472;2024-02-14T15:38:12;3.20;;;1.80;;
61460;SDS011;47325;50.506;4.472;2024-02-14T15:43:57;2.80;;;1.80;;
61460;SDS011;47325;50.506;4.472;2024-02-14T15:49:41;2.90;;;1.90;;
61460;SDS011;47325;50.506;4.472;2024-02-14T15:55:24;3.20;;;2.10;;
61460;SDS011;47325;50.506;4.472;2024-02-14T16:01:09;2.80;;;2.00;;
61460;SDS011;47325;50.506;4.472;2024-02-14T16:06:54;2.70;;;1.70;;
61460;SDS011;47325;50.506;4.472;2024-02-14T16:12:38;2.20;;;1.80;;
61460;SDS011;47325;50.506;4.472;2024-02-14T16:18:22;2.80;;;2.00;;
61460;SDS011;47325;50.506;4.472;2024-02-14T16:24:06;2.90;;;1.80;;
61460;SDS011;47325;50.506;4.472;2024-02-14T16:29:50;2.50;;;1.80;;
61460;SDS011;47325;50.506;4.472;2024-02-14T16:35:37;2.70;;;1.80;;
61460;SDS011;47325;50.506;4.472;2024-02-14T16:41:22;3.60;;;1.90;;
61460;SDS011;47325;50.506;4.472;2024-02-14T16:47:07;3.70;;;2.10;;
61460;SDS011;47325;50.506;4.472;2024-02-14T16:52:50;4.50;;;2.30;;
61460;SDS011;47325;50.506;4.472;2024-02-14T16:58:34;3.50;;;1.90;;
61460;SDS011;47325;50.506;4.472;2024-02-14T17:04:18;2.60;;;1.90;;
61460;SDS011;47325;50.506;4.472;2024-02-14T17:10:03;5.00;;;2.30;;
61460;SDS011;47325;50.506;4.472;2024-02-14T17:15:47;3.10;;;1.90;;
61460;SDS011;47325;50.506;4.472;2024-02-14T17:21:31;5.60;;;2.50;;
61460;SDS011;47325;50.506;4.472;2024-02-14T17:27:14;4.20;;;2.20;;
61460;SDS011;47325;50.506;4.472;2024-02-14T17:32:58;4.80;;;2.20;;
61460;SDS011;47325;50.506;4.472;2024-02-14T17:38:43;3.90;;;2.30;;
61460;SDS011;47325;50.506;4.472;2024-02-14T17:44:27;5.40;;;2.40;;
61460;SDS011;47325;50.506;4.472;2024-02-14T17:50:11;3.40;;;2.40;;
61460;SDS011;47325;50.506;4.472;2024-02-14T17:55:54;3.60;;;2.40;;
61460;SDS011;47325;50.506;4.472;2024-02-14T18:01:38;4.80;;;2.60;;
61460;SDS011;47325;50.506;4.472;2024-02-14T18:07:22;5.30;;;2.90;;
61460;SDS011;47325;50.506;4.472;2024-02-14T18:13:07;5.50;;;2.70;;
61460;SDS011;47325;50.506;4.472;2024-02-14T18:18:51;5.10;;;2.90;;
61460;SDS011;47325;50.506;4.472;2024-02-14T18:24:35;4.50;;;2.80;;
61460;SDS011;47325;50.506;4.472;2024-02-14T18:30:19;4.70;;;2.90;;
61460;SDS011;47325;50.506;4.472;2024-02-14T18:36:04;5.80;;;2.70;;
61460;SDS011;47325;50.506;4.472;2024-02-14T18:41:49;5.50;;;3.30;;
61460;SDS011;47325;50.506;4.472;2024-02-14T18:47:33;5.20;;;2.90;;
61460;SDS011;47325;50.506;4.472;2024-02-14T18:53:18;6.60;;;3.10;;
61460;SDS011;47325;50.506;4.472;2024-02-14T18:59:03;5.50;;;2.90;;
61460;SDS011;47325;50.506;4.472;2024-02-14T19:04:47;6.10;;;3.10;;
61460;SDS011;47325;50.506;4.472;2024-02-14T19:10:30;4.30;;;3.20;;
61460;SDS011;47325;50.506;4.472;2024-02-14T19:16:15;5.50;;;3.50;;
61460;SDS011;47325;50.506;4.472;2024-02-14T19:22:09;5.70;;;3.40;;
61460;SDS011;47325;50.506;4.472;2024-02-14T19:27:53;5.30;;;3.50;;
61460;SDS011;47325;50.506;4.472;2024-02-14T19:33:36;5.30;;;3.20;;
61460;SDS011;47325;50.506;4.472;2024-02-14T19:39:21;5.70;;;3.30;;
61460;SDS011;47325;50.506;4.472;2024-02-14T19:45:06;5.20;;;3.30;;
61460;SDS011;47325;50.506;4.472;2024-02-14T19:50:50;5.20;;;3.30;;
61460;SDS011;47325;50.506;4.472;2024-02-14T19:56:34;6.00;;;3.40;;
61460;SDS011;47325;50.506;4.472;2024-02-14T20:02:18;7.50;;;3.60;;
61460;SDS011;47325;50.506;4.472;2024-02-14T20:08:02;6.50;;;3.30;;
61460;SDS011;47325;50.506;4.472;2024-02-14T20:13:46;6.90;;;3.40;;
61460;SDS011;47325;50.506;4.472;2024-02-14T20:19:29;7.80;;;3.50;;
61460;SDS011;47325;50.506;4.472;2024-02-14T20:25:14;5.70;;;3.40;;
61460;SDS011;47325;50.506;4.472;2024-02-14T20:30:58;5.80;;;3.50;;
61460;SDS011;47325;50.506;4.472;2024-02-14T20:36:42;6.30;;;3.30;;
61460;SDS011;47325;50.506;4.472;2024-02-14T20:42:26;7.60;;;3.80;;
61460;SDS011;47325;50.506;4.472;2024-02-14T20:48:10;7.30;;;3.30;;
61460;SDS011;47325;50.506;4.472;2024-02-14T20:53:56;6.10;;;3.80;;
61460;SDS011;47325;50.506;4.472;2024-02-14T20:59:40;6.70;;;3.60;;
61460;SDS011;47325;50.506;4.472;2024-02-14T21:05:24;5.70;;;3.60;;
61460;SDS011;47325;50.506;4.472;2024-02-14T21:11:08;6.80;;;3.60;;
61460;SDS011;47325;50.506;4.472;2024-02-14T21:16:52;7.50;;;3.60;;
61460;SDS011;47325;50.506;4.472;2024-02-14T21:22:35;8.60;;;4.00;;
61460;SDS011;47325;50.506;4.472;2024-02-14T21:28:19;5.70;;;4.00;;
61460;SDS011;47325;50.506;4.472;2024-02-14T21:34:03;6.10;;;3.70;;
61460;SDS011;47325;50.506;4.472;2024-02-14T21:39:48;6.60;;;3.70;;
61460;SDS011;47325;50.506;4.472;2024-02-14T21:45:32;7.10;;;3.70;;
61460;SDS011;47325;50.506;4.472;2024-02-14T21:51:16;6.10;;;3.40;;
61460;SDS011;47325;50.506;4.472;2024-02-14T21:56:59;7.10;;;3.50;;
61460;SDS011;47325;50.506;4.472;2024-02-14T22:02:44;6.10;;;3.50;;
61460;SDS011;47325;50.506;4.472;2024-02-14T22:08:29;6.40;;;3.50;;
61460;SDS011;47325;50.506;4.472;2024-02-14T22:14:13;5.90;;;3.60;;
61460;SDS011;47325;50.506;4.472;2024-02-14T22:19:57;6.60;;;3.40;;
61460;SDS011;47325;50.506;4.472;2024-02-14T22:25:41;7.50;;;3.60;;
61460;SDS011;47325;50.506;4.472;2024-02-14T22:31:25;8.00;;;3.30;;
61460;SDS011;47325;50.506;4.472;2024-02-14T22:37:09;6.20;;;3.50;;
61460;SDS011;47325;50.506;4.472;2024-02-14T22:42:53;7.90;;;3.50;;
61460;SDS011;47325;50.506;4.472;2024-02-14T22:48:37;6.70;;;3.30;;
61460;SDS011;47325;50.506;4.472;2024-02-14T22:54:22;5.80;;;3.30;;
61460;SDS011;47325;50.506;4.472;2024-02-14T23:00:07;7.10;;;3.40;;
61460;SDS011;47325;50.506;4.472;2024-02-14T23:05:51;6.70;;;3.40;;
61460;SDS011;47325;50.506;4.472;2024-02-14T23:11:40;6.10;;;3.40;;
61460;SDS011;47325;50.506;4.472;2024-02-14T23:17:24;6.10;;;3.20;;
61460;SDS011;47325;50.506;4.472;2024-02-14T23:23:08;6.30;;;3.40;;
61460;SDS011;47325;50.506;4.472;2024-02-14T23:28:53;9.60;;;3.40;;
61460;SDS011;47325;50.506;4.472;2024-02-14T23:34:37;7.60;;;3.20;;
61460;SDS011;47325;50.506;4.472;2024-02-14T23:40:22;5.30;;;3.20;;
61460;SDS011;47325;50.506;4.472;2024-02-14T23:46:07;5.60;;;3.00;;
61460;SDS011;47325;50.506;4.472;2024-02-14T23:51:50;7.00;;;3.20;;
61460;SDS011;47325;50.506;4.472;2024-02-14T23:57:34;6.70;;;3.10;;
